Kenneth, Minnesota
Current Conditions -  °F | °C
As of 5:14 AM on Wednesday 22 Oct 2014 (Local Time) from KLYV Reporting Station
Scattered Clouds Scattered Clouds  
Wind Chill: 12°   Ceiling: Unl
Heat Index: 12°   Visibility: 10mi
Dew Point:   Wind: 12mph
Humidity: 67%   Direction: 150°SSE
Pressure: 30.04"   Gusts: NA
Location:  43.75°N, 96.07°W
Report Text: KLYV 221014Z AUTO 15010KT 10SM SCT075 12/06 A3004 RMK AO2
Loading
Personal Weather Stations






























Interactive Weather Map
Tropical Storm Tracking
New forecast layout! Learn more

10-Day Weather Forecast

Advertisements
Track Severe Weather on mobile